Terminal Aerodrome Forecast
Issued by NWS

Home | Current Version | Previous Version | Graphics & Text | Print | Product List | Glossary On
Versions: 1 2 3 4 5 6 7 8 9 10 11 12 13 14 15 16 17 18 19 20 21 22 23 24 25 26 27 28 29 30 31 32 33 34 35 36
155
FTUS43 KGRB 071815 AAA
TAFRHI
TAF AMD
KRHI 071815Z 0718/0818 24010KT P6SM OVC008
      TEMPO 0718/0722 2SM -RA BR
     FM072200 26007KT P6SM -SN OVC006
     FM080300 27009KT 5SM -SN BKN006
     FM080700 30010G15KT 2SM -SN BKN008
     FM081200 33012G24KT 3SM -SN SCT009 OVC012=

USA.gov is the U.S. government's official web portal to all federal, state and local government web resources and services.